< < Back
Terminal Aerodrome Forecast


Current Version              Previous Versions:   1  2  3  4  5  6  7  8  9  

Terminal Aerodrome Forecast

511
FTUS44 KBMX 160500
TAFMGM
TAF
KMGM 160539Z 1606/1706 35006KT P6SM SKC
     FM161100 02007KT P6SM SKC
     FM161500 09010KT P6SM SKC=

Latest METAR

379
SAUS80 KWBC 160700 RRA
MTRMGM
METAR KMGM 160653Z AUTO 01005KT 10SM CLR 05/M01 A3019 RMK AO2 SLP223
T00501006


USA.gov is the U.S. government's official web portal to all federal, state and local government web resources and services.